Time;durP1;ratioP1;P1;durP2;ratioP2;P2;SDS_P1;SDS_P2;PMS_P1;PMS_P2;Temp;Humidity;BMP_temperature;BMP_pressure;BME280_temperature;BME280_humidity;BME280_pressure;Samples;Min_cycle;Max_cycle;Signal;HPM_P1;HPM_P2
2021/10/31 00:01:29;;;;;;;27.10;22.23;;;9.90;99.90;;;;;;5115430;28;20196;-67
2021/10/31 00:03:55;;;;;;;28.10;21.60;;;9.80;99.90;;;;;;5115318;28;20193;-67
2021/10/31 00:06:22;;;;;;;25.50;21.08;;;9.80;99.90;;;;;;5114852;28;20202;-67
2021/10/31 00:08:48;;;;;;;22.20;19.60;;;9.70;99.90;;;;;;5114931;28;20214;-67
2021/10/31 00:11:17;;;;;;;23.45;19.75;;;9.90;99.90;;;;;;5114534;28;20203;-67
2021/10/31 00:13:43;;;;;;;30.17;20.15;;;9.90;99.90;;;;;;5114363;28;20202;-67
2021/10/31 00:16:12;;;;;;;27.50;19.08;;;10.10;99.90;;;;;;5097429;28;20194;-68
2021/10/31 00:18:39;;;;;;;20.35;17.50;;;10.20;99.90;;;;;;5114866;28;20202;-67
2021/10/31 00:21:05;;;;;;;21.05;17.90;;;10.30;99.90;;;;;;5114920;28;20197;-67
2021/10/31 00:23:32;;;;;;;21.45;18.42;;;10.50;99.90;;;;;;5096654;28;20202;-67
2021/10/31 00:25:58;;;;;;;21.15;17.73;;;10.50;99.90;;;;;;5114830;28;20189;-67
2021/10/31 00:28:25;;;;;;;18.73;15.75;;;10.60;99.90;;;;;;5114707;28;20186;-67
2021/10/31 00:30:52;;;;;;;22.00;17.23;;;10.60;99.90;;;;;;5115098;28;20191;-67
2021/10/31 00:33:18;;;;;;;20.80;15.90;;;10.60;99.90;;;;;;5115073;28;20202;-67
2021/10/31 00:35:45;;;;;;;21.10;15.10;;;10.60;99.90;;;;;;5114983;28;20197;-67
2021/10/31 00:38:11;;;;;;;21.85;15.32;;;10.60;99.90;;;;;;5114783;28;20190;-67
2021/10/31 00:40:38;;;;;;;17.60;15.52;;;10.70;99.90;;;;;;5114770;28;20199;-67
2021/10/31 00:43:05;;;;;;;20.17;16.02;;;10.60;99.90;;;;;;5114379;28;20199;-67
2021/10/31 00:45:31;;;;;;;22.85;17.50;;;10.60;99.90;;;;;;5113699;28;20191;-67
2021/10/31 00:47:58;;;;;;;20.58;16.75;;;10.60;99.90;;;;;;5114453;28;20190;-67
2021/10/31 00:50:24;;;;;;;19.05;16.52;;;10.60;99.90;;;;;;5113818;28;20227;-67
2021/10/31 00:52:51;;;;;;;23.30;17.73;;;10.60;99.90;;;;;;5114371;28;20191;-67
2021/10/31 00:55:18;;;;;;;20.38;16.42;;;10.60;99.90;;;;;;5113906;28;20541;-67
2021/10/31 00:57:45;;;;;;;21.77;17.52;;;10.50;99.90;;;;;;5114232;28;20198;-67
2021/10/31 01:00:12;;;;;;;28.85;18.60;;;10.50;99.90;;;;;;5113708;28;20207;-67
2021/10/31 01:02:39;;;;;;;19.95;17.85;;;10.40;99.90;;;;;;5096240;28;20209;-67
2021/10/31 01:05:13;;;;;;;24.10;19.23;;;10.30;99.90;;;;;;5096054;28;20211;-67
2021/10/31 01:08:09;;;;;;;24.42;18.95;;;10.30;99.90;;;;;;5114367;28;20198;-67
2021/10/31 01:11:06;;;;;;;24.40;18.90;;;10.30;99.90;;;;;;5096288;28;20199;-67
2021/10/31 01:14:13;;;;;;;22.38;18.92;;;10.30;99.90;;;;;;5113511;28;20205;-67
2021/10/31 01:17:01;;;;;;;26.65;19.13;;;10.20;99.90;;;;;;5113957;28;20775;-67
2021/10/31 01:19:49;;;;;;;29.80;20.45;;;10.20;99.90;;;;;;5113407;28;20573;-67
2021/10/31 01:22:23;;;;;;;29.83;20.20;;;10.20;99.90;;;;;;5113918;28;20175;-67
2021/10/31 01:25:17;;;;;;;27.15;21.38;;;10.10;99.90;;;;;;5113905;28;20201;-67
2021/10/31 01:28:00;;;;;;;30.92;21.15;;;9.90;99.90;;;;;;5113665;28;20237;-67
2021/10/31 01:30:57;;;;;;;22.63;17.67;;;9.60;99.90;;;;;;5113399;28;20230;-67
2021/10/31 01:34:00;;;;;;;26.60;20.75;;;9.40;99.90;;;;;;5113349;28;20213;-67
2021/10/31 01:36:51;;;;;;;30.20;20.77;;;9.30;99.90;;;;;;5112854;28;20202;-67
2021/10/31 01:39:23;;;;;;;24.52;18.98;;;9.20;99.90;;;;;;5113422;28;20207;-67
2021/10/31 01:41:56;;;;;;;26.35;19.80;;;9.10;99.90;;;;;;5096346;28;20572;-66
2021/10/31 01:44:25;;;;;;;23.60;18.27;;;9.00;99.90;;;;;;5113664;28;20186;-67
2021/10/31 01:47:33;;;;;;;22.05;17.55;;;8.90;99.90;;;;;;5113650;28;20209;-67
2021/10/31 01:50:10;;;;;;;24.27;19.20;;;8.80;99.90;;;;;;5091184;28;20234;-67
2021/10/31 01:52:46;;;;;;;25.95;19.85;;;8.70;99.90;;;;;;5113533;28;20174;-67
2021/10/31 01:55:19;;;;;;;27.00;19.67;;;8.60;99.90;;;;;;5113802;28;20181;-67
2021/10/31 01:57:48;;;;;;;28.15;19.20;;;8.60;99.90;;;;;;5100523;28;20210;-67
2021/10/31 02:00:16;;;;;;;25.88;18.35;;;8.50;99.90;;;;;;5120019;28;20206;-67
2021/10/31 02:02:45;;;;;;;29.52;21.83;;;8.40;99.90;;;;;;5120686;28;20201;-67
2021/10/31 02:05:19;;;;;;;25.90;21.40;;;8.40;99.90;;;;;;5120563;28;20201;-67
2021/10/31 02:07:51;;;;;;;28.88;21.35;;;8.30;99.90;;;;;;5120565;28;20235;-67
2021/10/31 02:10:18;;;;;;;30.33;22.70;;;8.30;99.90;;;;;;5120088;28;20237;-67
2021/10/31 02:12:48;;;;;;;27.52;20.92;;;8.30;99.90;;;;;;5086011;28;20182;-67
2021/10/31 02:15:17;;;;;;;32.28;23.73;;;8.30;99.90;;;;;;5120455;28;20197;-67
2021/10/31 02:17:50;;;;;;;37.40;26.15;;;8.30;99.90;;;;;;5121263;28;20190;-67
2021/10/31 02:20:17;;;;;;;37.83;26.55;;;8.40;99.90;;;;;;5121648;28;20194;-67
2021/10/31 02:22:51;;;;;;;36.00;26.55;;;8.40;99.90;;;;;;5122371;28;20191;-67
2021/10/31 02:25:17;;;;;;;37.20;26.80;;;8.30;99.90;;;;;;5102681;28;20230;-67
2021/10/31 02:27:45;;;;;;;34.75;26.00;;;8.30;99.90;;;;;;5120762;28;20187;-67
2021/10/31 02:30:13;;;;;;;36.20;25.20;;;8.20;99.90;;;;;;5120403;28;20214;-67
2021/10/31 02:32:39;;;;;;;35.95;26.00;;;8.20;99.90;;;;;;5119881;28;20549;-67
2021/10/31 02:35:11;;;;;;;34.22;24.52;;;8.20;99.90;;;;;;5120588;28;20190;-67
2021/10/31 02:37:40;;;;;;;36.75;25.33;;;8.20;99.90;;;;;;5119884;28;20221;-67
2021/10/31 02:40:09;;;;;;;34.20;24.00;;;8.10;99.90;;;;;;5120345;28;20201;-67
2021/10/31 02:42:35;;;;;;;34.33;23.40;;;8.20;99.90;;;;;;5120385;28;20192;-67
2021/10/31 02:45:03;;;;;;;32.75;24.42;;;8.10;99.90;;;;;;5120844;28;20197;-67
2021/10/31 02:47:39;;;;;;;29.88;24.10;;;8.20;99.90;;;;;;5120472;28;20205;-67
2021/10/31 02:50:11;;;;;;;29.10;22.58;;;8.20;99.90;;;;;;5120900;28;20226;-67
2021/10/31 02:52:55;;;;;;;30.75;23.67;;;8.20;99.90;;;;;;5120147;28;20537;-67
2021/10/31 02:55:30;;;;;;;32.70;22.95;;;8.20;99.90;;;;;;5120527;28;20179;-67
2021/10/31 02:58:12;;;;;;;32.80;24.60;;;8.20;99.90;;;;;;5120422;28;20641;-67
2021/10/31 03:00:40;;;;;;;33.65;24.52;;;8.10;99.90;;;;;;5120321;28;20194;-67
2021/10/31 03:03:08;;;;;;;31.48;23.70;;;8.10;99.90;;;;;;5108563;28;20224;-67
2021/10/31 03:05:35;;;;;;;26.63;22.02;;;8.10;99.90;;;;;;5116947;28;20201;-67
2021/10/31 03:08:02;;;;;;;32.90;25.70;;;8.10;99.90;;;;;;5117709;28;20209;-67
2021/10/31 03:10:28;;;;;;;31.00;24.15;;;8.10;99.90;;;;;;5116449;28;20214;-67
2021/10/31 03:12:55;;;;;;;30.55;24.02;;;8.10;99.90;;;;;;5116800;28;20280;-67
2021/10/31 03:15:23;;;;;;;30.30;22.88;;;8.00;99.90;;;;;;5116525;28;20191;-67
2021/10/31 03:17:49;;;;;;;30.75;23.45;;;8.00;99.90;;;;;;5116723;28;20562;-67
2021/10/31 03:20:16;;;;;;;31.52;24.50;;;8.00;99.90;;;;;;5117484;28;20634;-67
2021/10/31 03:22:42;;;;;;;33.28;25.25;;;8.00;99.90;;;;;;5117390;28;20193;-67
2021/10/31 03:25:09;;;;;;;33.08;25.00;;;8.00;99.90;;;;;;5117141;28;20198;-67
2021/10/31 03:27:35;;;;;;;30.75;24.33;;;8.00;99.90;;;;;;5117170;28;20190;-67
2021/10/31 03:30:02;;;;;;;28.35;22.30;;;8.00;99.90;;;;;;5117318;28;20214;-67
2021/10/31 03:32:31;;;;;;;30.38;23.85;;;8.00;99.90;;;;;;5118093;28;20190;-67
2021/10/31 03:34:58;;;;;;;33.08;25.02;;;7.90;99.90;;;;;;5117000;28;20206;-67
2021/10/31 03:37:24;;;;;;;35.95;25.42;;;7.90;99.90;;;;;;5116423;28;20224;-67
2021/10/31 03:39:51;;;;;;;38.28;26.05;;;7.90;99.90;;;;;;5116607;28;20197;-67
2021/10/31 03:42:17;;;;;;;37.70;25.42;;;8.00;99.90;;;;;;5116404;28;20672;-67
2021/10/31 03:44:50;;;;;;;30.27;24.83;;;8.00;99.90;;;;;;5116798;28;20650;-67
2021/10/31 03:47:19;;;;;;;39.17;27.35;;;8.10;99.90;;;;;;5098699;28;20202;-67
2021/10/31 03:49:45;;;;;;;33.55;26.88;;;8.10;99.90;;;;;;5115896;28;20253;-67
2021/10/31 03:52:12;;;;;;;41.30;27.95;;;8.20;99.90;;;;;;5116635;28;20179;-67
2021/10/31 03:54:40;;;;;;;34.28;25.38;;;8.20;99.90;;;;;;5115868;28;20228;-67
2021/10/31 03:57:06;;;;;;;35.30;26.48;;;8.30;99.90;;;;;;5116302;28;20183;-67
2021/10/31 03:59:33;;;;;;;37.90;26.42;;;8.40;99.90;;;;;;5116111;28;20198;-67
2021/10/31 04:01:59;;;;;;;33.35;25.95;;;8.40;99.90;;;;;;5116058;28;20190;-67
2021/10/31 04:04:25;;;;;;;37.25;27.58;;;8.50;99.90;;;;;;5098754;28;20187;-67
2021/10/31 04:06:52;;;;;;;35.50;27.05;;;8.50;99.90;;;;;;5117724;28;20563;-67
2021/10/31 04:09:21;;;;;;;37.65;26.60;;;8.50;99.90;;;;;;5115899;28;20194;-67
2021/10/31 04:11:49;;;;;;;38.38;27.60;;;8.50;99.90;;;;;;5115587;28;20244;-67
2021/10/31 04:14:15;;;;;;;33.72;26.95;;;8.50;99.90;;;;;;5114993;28;20206;-67
2021/10/31 04:16:42;;;;;;;32.50;25.67;;;8.50;99.90;;;;;;5114811;28;20513;-67
2021/10/31 04:19:08;;;;;;;34.67;24.50;;;8.50;99.90;;;;;;5114394;28;20194;-67
2021/10/31 04:21:34;;;;;;;35.65;25.58;;;8.50;99.90;;;;;;5114022;28;20195;-67
2021/10/31 04:24:01;;;;;;;37.33;27.20;;;8.60;99.90;;;;;;5115031;28;20279;-67
2021/10/31 04:26:27;;;;;;;42.05;25.80;;;8.50;99.90;;;;;;5115108;28;20193;-67
2021/10/31 04:28:54;;;;;;;34.63;25.05;;;8.50;99.90;;;;;;5114770;28;20187;-67
2021/10/31 04:31:20;;;;;;;34.10;24.33;;;8.50;99.90;;;;;;5115005;28;20226;-67
2021/10/31 04:33:47;;;;;;;38.47;23.35;;;8.50;99.90;;;;;;5114931;28;20202;-67
2021/10/31 04:36:14;;;;;;;35.30;25.15;;;8.50;99.90;;;;;;5114953;28;20199;-67
2021/10/31 04:38:40;;;;;;;31.92;24.65;;;8.60;99.90;;;;;;5114290;28;20218;-67
2021/10/31 04:41:08;;;;;;;28.65;23.58;;;8.60;99.90;;;;;;5114743;28;20198;-67
2021/10/31 04:43:35;;;;;;;30.27;23.35;;;8.60;99.90;;;;;;5114845;28;20561;-67
2021/10/31 04:46:01;;;;;;;36.90;24.60;;;8.60;99.90;;;;;;5114513;28;20194;-67
2021/10/31 04:48:27;;;;;;;29.65;24.10;;;8.60;99.90;;;;;;5114554;28;20195;-67
2021/10/31 04:50:54;;;;;;;28.85;24.48;;;8.60;99.90;;;;;;5114334;28;20229;-67
2021/10/31 04:53:21;;;;;;;33.15;25.10;;;8.70;99.90;;;;;;5114487;28;20213;-67
2021/10/31 04:55:47;;;;;;;28.15;22.88;;;8.70;99.90;;;;;;5114509;28;20194;-67
2021/10/31 04:58:14;;;;;;;28.60;23.02;;;8.70;99.90;;;;;;5114209;28;20194;-67
2021/10/31 05:00:40;;;;;;;24.98;20.83;;;8.70;99.90;;;;;;5113999;28;20206;-67
2021/10/31 05:03:07;;;;;;;31.25;22.38;;;8.70;99.90;;;;;;5114433;28;20205;-67
2021/10/31 05:05:33;;;;;;;28.45;23.88;;;8.70;99.90;;;;;;5113964;28;20198;-67
2021/10/31 05:08:03;;;;;;;26.13;23.15;;;8.70;99.90;;;;;;5114197;28;20653;-67
2021/10/31 05:10:30;;;;;;;28.92;22.98;;;8.70;99.90;;;;;;5113955;28;20585;-67
2021/10/31 05:12:56;;;;;;;31.15;23.23;;;8.70;99.90;;;;;;5113993;28;20273;-67
2021/10/31 05:15:25;;;;;;;34.20;24.27;;;8.70;99.90;;;;;;5114236;28;20535;-67
2021/10/31 05:17:51;;;;;;;26.83;23.30;;;8.80;99.90;;;;;;5096206;28;20186;-67
2021/10/31 05:20:18;;;;;;;28.63;22.45;;;8.80;99.90;;;;;;5113544;28;20210;-67
2021/10/31 05:22:47;;;;;;;27.38;22.77;;;8.80;99.90;;;;;;5103081;28;20612;-67
2021/10/31 05:25:15;;;;;;;28.00;23.88;;;8.80;99.90;;;;;;5109960;28;20191;-67
2021/10/31 05:27:41;;;;;;;28.58;24.20;;;8.90;99.90;;;;;;5113503;28;20197;-67
2021/10/31 05:30:10;;;;;;;32.53;25.88;;;8.90;99.90;;;;;;5113347;28;20237;-67
2021/10/31 05:32:38;;;;;;;36.47;27.45;;;8.90;99.90;;;;;;5112847;28;20190;-67
2021/10/31 05:35:08;;;;;;;38.75;29.73;;;8.90;99.90;;;;;;5113243;28;20211;-67
2021/10/31 05:37:45;;;;;;;28.95;25.85;;;9.00;99.90;;;;;;5113488;28;20191;-67
2021/10/31 05:40:15;;;;;;;33.28;24.58;;;9.00;99.90;;;;;;5112917;28;20206;-67
2021/10/31 05:42:43;;;;;;;27.55;23.35;;;9.00;99.90;;;;;;5113482;28;20630;-67
2021/10/31 05:45:10;;;;;;;31.05;23.52;;;9.00;99.90;;;;;;5113450;28;20206;-67
2021/10/31 05:47:38;;;;;;;28.42;24.90;;;9.00;99.90;;;;;;5113370;28;20191;-67
2021/10/31 05:50:07;;;;;;;27.58;22.52;;;9.00;99.90;;;;;;5113121;28;20236;-67
2021/10/31 05:52:34;;;;;;;29.55;23.13;;;9.00;99.90;;;;;;5113341;28;20707;-67
2021/10/31 05:55:01;;;;;;;31.40;25.50;;;9.00;99.90;;;;;;5113268;28;20554;-68
2021/10/31 05:57:28;;;;;;;29.58;23.25;;;9.00;99.90;;;;;;5112133;28;20263;-67
2021/10/31 05:59:55;;;;;;;30.88;24.38;;;9.10;99.90;;;;;;5112732;28;20209;-67
2021/10/31 06:02:21;;;;;;;26.67;22.10;;;9.10;99.90;;;;;;5113516;28;20202;-67
2021/10/31 06:04:48;;;;;;;30.73;24.00;;;9.10;99.90;;;;;;5098779;28;20209;-67
2021/10/31 06:07:14;;;;;;;26.90;23.25;;;9.10;99.90;;;;;;5113481;28;20195;-67
2021/10/31 06:09:41;;;;;;;28.80;23.35;;;9.10;99.90;;;;;;5112646;28;20560;-67
2021/10/31 06:12:08;;;;;;;32.22;23.60;;;9.10;99.90;;;;;;5094625;28;20209;-67
2021/10/31 06:14:35;;;;;;;27.88;22.75;;;9.00;99.90;;;;;;5098719;28;20325;-67
2021/10/31 06:17:03;;;;;;;28.33;22.98;;;9.00;99.90;;;;;;5112884;28;20642;-67
2021/10/31 06:19:30;;;;;;;33.15;24.25;;;9.00;99.90;;;;;;5112662;28;20198;-67
2021/10/31 06:21:58;;;;;;;28.90;24.50;;;9.10;99.90;;;;;;5112336;28;20207;-67
2021/10/31 06:24:24;;;;;;;29.50;23.35;;;9.00;99.90;;;;;;5112877;28;20191;-67
2021/10/31 06:26:51;;;;;;;30.58;24.85;;;9.00;99.90;;;;;;5112950;28;20274;-67
2021/10/31 06:29:17;;;;;;;27.52;23.45;;;9.00;99.90;;;;;;5113081;28;20203;-68
2021/10/31 06:31:44;;;;;;;28.40;22.90;;;9.00;99.90;;;;;;5112526;28;20213;-67
2021/10/31 06:34:11;;;;;;;29.40;23.70;;;9.00;99.90;;;;;;5112746;28;20558;-67
2021/10/31 06:36:37;;;;;;;28.88;24.23;;;9.00;99.90;;;;;;5112689;28;20195;-67
2021/10/31 06:39:04;;;;;;;26.58;22.13;;;8.90;99.90;;;;;;5112702;28;20202;-67
2021/10/31 06:41:31;;;;;;;28.42;22.98;;;8.90;99.90;;;;;;5112982;28;20203;-67
2021/10/31 06:43:57;;;;;;;32.17;23.23;;;9.00;99.90;;;;;;5114451;28;20603;-67
2021/10/31 06:46:25;;;;;;;32.70;25.40;;;9.00;99.90;;;;;;5116596;28;20191;-67
2021/10/31 06:48:52;;;;;;;33.53;28.63;;;9.00;99.90;;;;;;5115461;28;20653;-67
2021/10/31 06:51:21;;;;;;;38.22;31.83;;;9.00;99.90;;;;;;5115680;28;20230;-67
2021/10/31 06:53:49;;;;;;;36.25;28.60;;;9.00;99.90;;;;;;5116120;28;20203;-67
2021/10/31 06:56:17;;;;;;;29.73;24.70;;;9.00;99.90;;;;;;5116039;28;20553;-67
2021/10/31 06:58:43;;;;;;;33.58;26.60;;;9.00;99.90;;;;;;5116093;28;20197;-67
2021/10/31 07:01:10;;;;;;;29.08;25.30;;;9.00;99.90;;;;;;5115758;28;20206;-67
2021/10/31 07:03:36;;;;;;;32.35;26.75;;;9.00;99.90;;;;;;5116082;28;20195;-67
2021/10/31 07:06:04;;;;;;;33.65;27.02;;;9.10;99.90;;;;;;5101156;28;20209;-68
2021/10/31 07:08:31;;;;;;;30.50;26.55;;;9.10;99.90;;;;;;5116135;28;20649;-67
2021/10/31 07:10:58;;;;;;;33.38;27.50;;;9.00;99.90;;;;;;5116126;28;20218;-67
2021/10/31 07:13:24;;;;;;;35.17;26.77;;;9.00;99.90;;;;;;5116637;28;20195;-68
2021/10/31 07:15:50;;;;;;;31.65;26.40;;;9.10;99.90;;;;;;5111829;28;20199;-67
2021/10/31 07:18:17;;;;;;;35.70;25.42;;;9.10;99.90;;;;;;5106401;28;20199;-67
2021/10/31 07:20:43;;;;;;;34.33;25.38;;;9.10;99.90;;;;;;5116737;28;20199;-66
2021/10/31 07:23:09;;;;;;;31.55;25.77;;;9.10;99.90;;;;;;5098479;28;20595;-67
2021/10/31 07:25:36;;;;;;;36.17;26.52;;;9.10;99.90;;;;;;5098541;28;20207;-67
2021/10/31 07:28:02;;;;;;;30.95;25.63;;;9.10;99.90;;;;;;5098872;28;20199;-67
2021/10/31 07:30:29;;;;;;;36.58;28.27;;;9.10;99.90;;;;;;5116577;28;20738;-67
2021/10/31 07:33:01;;;;;;;35.95;28.00;;;9.20;99.90;;;;;;5117258;28;20197;-67
2021/10/31 07:35:29;;;;;;;30.98;25.25;;;9.20;99.90;;;;;;5118333;28;20580;-67
2021/10/31 07:37:56;;;;;;;34.40;29.05;;;9.30;99.90;;;;;;5117762;28;20191;-67
2021/10/31 07:40:23;;;;;;;37.58;28.33;;;9.30;99.90;;;;;;5111342;28;20198;-67
2021/10/31 07:42:50;;;;;;;43.47;30.85;;;9.30;99.90;;;;;;5116267;28;20210;-67
2021/10/31 07:45:18;;;;;;;48.60;28.58;;;9.30;99.90;;;;;;5117106;28;20297;-67
2021/10/31 07:47:44;;;;;;;37.10;27.90;;;9.40;99.90;;;;;;5082578;28;20207;-67
2021/10/31 07:50:11;;;;;;;38.55;28.92;;;9.70;99.90;;;;;;5117345;28;20241;-67
2021/10/31 07:52:43;;;;;;;36.95;29.52;;;9.80;99.90;;;;;;5117148;28;20183;-67
2021/10/31 07:55:14;;;;;;;43.10;30.17;;;10.00;99.90;;;;;;5116539;28;20209;-67
2021/10/31 07:57:42;;;;;;;38.20;30.42;;;10.10;99.90;;;;;;5116191;28;20217;-67
2021/10/31 08:00:11;;;;;;;38.05;28.35;;;10.30;99.90;;;;;;5116832;28;20288;-67
2021/10/31 08:02:37;;;;;;;34.75;30.98;;;10.40;99.90;;;;;;5116956;28;20198;-68
2021/10/31 08:05:04;;;;;;;36.65;27.58;;;10.50;99.90;;;;;;5117096;28;20191;-67
2021/10/31 08:07:31;;;;;;;29.33;26.25;;;10.70;99.90;;;;;;5098902;28;20202;-67
2021/10/31 08:09:58;;;;;;;33.15;27.27;;;10.80;99.90;;;;;;5117122;28;20585;-67
2021/10/31 08:12:28;;;;;;;30.95;26.08;;;11.00;99.90;;;;;;5116759;28;20210;-69
2021/10/31 08:14:55;;;;;;;32.95;26.20;;;11.20;99.90;;;;;;5116543;28;20187;-68
2021/10/31 08:17:21;;;;;;;25.75;23.05;;;11.30;99.90;;;;;;5098340;28;20186;-68
2021/10/31 08:19:48;;;;;;;26.33;22.88;;;11.40;99.90;;;;;;5116294;28;20190;-68
2021/10/31 08:22:14;;;;;;;27.17;23.52;;;11.50;99.90;;;;;;5116799;28;20297;-67
2021/10/31 08:24:40;;;;;;;24.60;21.92;;;11.60;99.90;;;;;;5098570;28;20214;-68
2021/10/31 08:27:07;;;;;;;22.48;20.17;;;11.70;99.90;;;;;;5116364;28;20213;-68
2021/10/31 08:29:33;;;;;;;24.50;19.77;;;11.80;99.90;;;;;;5115671;28;20603;-68
2021/10/31 08:32:00;;;;;;;25.35;18.70;;;12.00;99.90;;;;;;5116110;28;20599;-68
2021/10/31 08:34:27;;;;;;;23.40;19.13;;;12.10;99.90;;;;;;5116150;28;20187;-67
2021/10/31 08:36:53;;;;;;;20.45;18.35;;;12.20;99.90;;;;;;5080936;28;20262;-67
2021/10/31 08:39:20;;;;;;;22.83;17.23;;;12.30;99.90;;;;;;5116070;28;20194;-68
2021/10/31 08:41:46;;;;;;;19.40;17.33;;;12.50;99.90;;;;;;5115493;28;20621;-67
2021/10/31 08:44:12;;;;;;;16.57;14.80;;;12.60;99.90;;;;;;5115877;28;20950;-68
2021/10/31 08:46:39;;;;;;;17.33;15.63;;;12.80;99.90;;;;;;5115248;28;20627;-68
2021/10/31 08:49:05;;;;;;;17.80;15.80;;;13.30;99.90;;;;;;5097514;28;20599;-68
2021/10/31 08:51:32;;;;;;;14.63;13.23;;;13.40;99.90;;;;;;5115397;28;20656;-67
2021/10/31 08:54:00;;;;;;;15.00;13.40;;;13.40;99.90;;;;;;5097454;28;20637;-67
2021/10/31 08:56:30;;;;;;;13.53;12.23;;;13.60;99.90;;;;;;5115593;28;20973;-67
2021/10/31 08:58:57;;;;;;;13.57;12.17;;;13.50;99.90;;;;;;5114711;28;20620;-69
2021/10/31 09:01:24;;;;;;;13.20;12.10;;;13.70;99.90;;;;;;5115295;28;20604;-68
2021/10/31 09:03:52;;;;;;;13.20;11.90;;;13.80;99.90;;;;;;5115520;28;20619;-67
2021/10/31 09:06:24;;;;;;;13.20;12.00;;;13.80;99.90;;;;;;5114806;28;20627;-67
2021/10/31 09:08:50;;;;;;;13.27;11.83;;;13.90;99.90;;;;;;5114854;28;21147;-67
2021/10/31 09:11:19;;;;;;;13.67;12.40;;;13.90;99.90;;;;;;5115194;28;20636;-67
2021/10/31 09:13:46;;;;;;;12.27;11.17;;;14.10;99.90;;;;;;5080207;28;20631;-67
2021/10/31 09:16:13;;;;;;;12.47;11.13;;;14.30;99.90;;;;;;5115109;28;20600;-67
2021/10/31 09:18:39;;;;;;;16.87;11.20;;;14.30;99.90;;;;;;5115174;28;21169;-66
2021/10/31 09:21:07;;;;;;;12.67;11.47;;;14.20;99.90;;;;;;5114859;28;20598;-67
2021/10/31 09:23:33;;;;;;;12.27;11.10;;;14.20;99.90;;;;;;5114693;28;20621;-67
2021/10/31 09:26:00;;;;;;;15.87;11.13;;;14.30;99.90;;;;;;5114915;28;20624;-67
2021/10/31 09:28:27;;;;;;;11.80;10.60;;;14.30;99.90;;;;;;5114494;28;20691;-67
2021/10/31 09:30:53;;;;;;;12.03;10.73;;;14.50;99.90;;;;;;5114135;28;21040;-67
2021/10/31 09:33:21;;;;;;;10.13;9.23;;;14.50;99.90;;;;;;5096623;28;20628;-68
2021/10/31 09:35:51;;;;;;;13.53;8.80;;;14.70;99.90;;;;;;5114864;28;20619;-68
2021/10/31 09:38:19;;;;;;;10.70;7.47;;;14.80;99.90;;;;;;5114741;28;20635;-68
2021/10/31 09:40:47;;;;;;;8.90;8.10;;;15.00;99.90;;;;;;5114515;28;20632;-68
2021/10/31 09:43:15;;;;;;;9.20;8.37;;;15.20;99.90;;;;;;5096315;28;21157;-68
2021/10/31 09:45:41;;;;;;;11.03;8.57;;;15.00;99.90;;;;;;5115093;28;20600;-67
2021/10/31 09:48:11;;;;;;;14.87;8.30;;;15.10;99.90;;;;;;5114340;28;20632;-68
2021/10/31 09:50:47;;;;;;;8.40;7.60;;;15.10;99.90;;;;;;5096550;28;21018;-67
2021/10/31 09:53:17;;;;;;;9.90;9.00;;;15.10;99.90;;;;;;5113416;28;20644;-68
2021/10/31 09:55:44;;;;;;;9.40;8.50;;;15.50;99.90;;;;;;5113700;28;20621;-68
2021/10/31 09:58:19;;;;;;;9.27;8.37;;;15.70;99.90;;;;;;5113779;28;20596;-66
2021/10/31 10:00:48;;;;;;;8.83;8.00;;;15.70;99.90;;;;;;5113847;28;20620;-66
2021/10/31 10:03:35;;;;;;;9.20;8.30;;;15.90;99.90;;;;;;5113606;28;20616;-66
2021/10/31 10:06:20;;;;;;;8.17;7.57;;;15.80;99.90;;;;;;5114599;28;20907;-67
2021/10/31 10:09:03;;;;;;;9.87;7.20;;;15.70;99.90;;;;;;5114036;28;20616;-68
2021/10/31 10:11:34;;;;;;;8.43;7.63;;;15.80;99.90;;;;;;5113993;28;20596;-67
2021/10/31 10:14:26;;;;;;;8.17;7.50;;;15.70;99.90;;;;;;5113798;28;20622;-67
2021/10/31 10:17:01;;;;;;;7.00;6.40;;;15.70;99.90;;;;;;5114205;28;20619;-67
2021/10/31 10:19:35;;;;;;;7.87;7.07;;;15.70;99.90;;;;;;5117835;28;21134;-67
2021/10/31 10:22:06;;;;;;;9.50;6.37;;;15.80;99.90;;;;;;5117707;28;20572;-67
2021/10/31 10:24:40;;;;;;;7.00;6.40;;;15.80;99.90;;;;;;5117929;28;21145;-67
2021/10/31 10:27:08;;;;;;;8.33;7.60;;;15.90;99.90;;;;;;5118011;28;20649;-68
2021/10/31 10:29:37;;;;;;;6.83;6.10;;;15.90;99.90;;;;;;5117696;28;20617;-67
2021/10/31 10:32:05;;;;;;;6.97;6.33;;;16.00;99.90;;;;;;5117884;28;21246;-68
2021/10/31 10:35:15;;;;;;;6.30;5.80;;;16.20;99.90;;;;;;5117538;28;20654;-67
2021/10/31 10:37:41;;;;;;;6.30;5.63;;;16.50;99.90;;;;;;5070014;28;20640;-67
2021/10/31 10:40:10;;;;;;;6.80;6.10;;;16.70;99.90;;;;;;5117255;28;20612;-68
2021/10/31 10:42:41;;;;;;;6.00;5.40;;;16.80;99.90;;;;;;5117787;28;20596;-68
2021/10/31 10:45:14;;;;;;;6.23;5.73;;;16.50;99.90;;;;;;5117703;28;20561;-67
2021/10/31 10:47:53;;;;;;;9.10;5.13;;;16.60;99.90;;;;;;5116900;28;20617;-69
2021/10/31 10:50:25;;;;;;;7.63;6.10;;;16.60;99.90;;;;;;5117780;28;20849;-68
2021/10/31 10:52:53;;;;;;;7.07;6.40;;;16.50;99.90;;;;;;5117820;28;20604;-67
2021/10/31 10:55:22;;;;;;;7.30;6.70;;;16.20;99.90;;;;;;5117311;28;20603;-67
2021/10/31 10:57:54;;;;;;;7.57;6.87;;;16.10;99.90;;;;;;5117684;28;20596;-68
2021/10/31 11:00:31;;;;;;;7.27;6.50;;;16.00;99.90;;;;;;5118150;28;20915;-67
2021/10/31 11:03:09;;;;;;;6.40;5.97;;;16.00;99.90;;;;;;5116826;28;20631;-67
2021/10/31 11:05:38;;;;;;;7.27;6.47;;;16.10;99.90;;;;;;5117719;28;20556;-68
2021/10/31 11:08:13;;;;;;;7.97;7.17;;;16.30;99.90;;;;;;5117117;28;21078;-68
2021/10/31 11:11:02;;;;;;;8.47;7.67;;;16.40;99.90;;;;;;5116845;28;21139;-68
2021/10/31 11:13:30;;;;;;;6.33;5.80;;;16.60;99.90;;;;;;5117138;28;20737;-67
2021/10/31 11:16:02;;;;;;;7.70;7.10;;;16.70;99.90;;;;;;5116988;28;20603;-67
2021/10/31 11:18:29;;;;;;;7.67;6.90;;;16.80;99.90;;;;;;5116993;28;20592;-67
2021/10/31 11:20:55;;;;;;;7.53;6.87;;;16.90;99.90;;;;;;5117279;28;20616;-67
2021/10/31 11:23:22;;;;;;;8.10;6.60;;;16.90;99.90;;;;;;5117076;28;21132;-67
2021/10/31 11:25:51;;;;;;;8.60;7.20;;;17.10;99.90;;;;;;5117399;28;20925;-67
2021/10/31 11:28:20;;;;;;;7.20;6.50;;;17.70;99.90;;;;;;5116529;28;20609;-67
2021/10/31 11:30:49;;;;;;;6.80;5.77;;;18.00;99.90;;;;;;5115565;28;20619;-67
2021/10/31 11:33:16;;;;;;;7.00;6.40;;;18.00;99.90;;;;;;5116072;28;20592;-67
2021/10/31 11:35:43;;;;;;;6.47;5.90;;;17.70;99.90;;;;;;5116409;28;20612;-67
2021/10/31 11:38:12;;;;;;;6.77;6.27;;;17.60;99.90;;;;;;5116536;28;20596;-67
2021/10/31 11:40:45;;;;;;;6.03;5.53;;;17.40;99.90;;;;;;5116452;28;20614;-67
2021/10/31 11:43:27;;;;;;;7.30;5.50;;;17.10;99.90;;;;;;5116476;28;20620;-68
2021/10/31 11:45:55;;;;;;;6.30;5.70;;;16.90;99.90;;;;;;5116547;28;20584;-68
2021/10/31 11:48:31;;;;;;;5.90;5.27;;;16.80;99.90;;;;;;5116941;28;21115;-67
2021/10/31 11:51:06;;;;;;;8.57;4.60;;;17.10;99.90;;;;;;5116130;28;20642;-67
2021/10/31 11:53:32;;;;;;;5.00;4.60;;;17.20;99.90;;;;;;5116261;28;20600;-67
2021/10/31 11:56:04;;;;;;;4.93;4.53;;;17.00;99.90;;;;;;5098447;28;20616;-67
2021/10/31 11:58:37;;;;;;;4.87;4.47;;;17.10;99.90;;;;;;5115592;28;20620;-68
2021/10/31 12:01:22;;;;;;;9.00;4.30;;;16.90;99.90;;;;;;5115429;28;20616;-68
2021/10/31 12:03:56;;;;;;;4.50;4.10;;;16.80;99.90;;;;;;5116137;28;20620;-67
2021/10/31 12:06:23;;;;;;;4.80;3.70;;;17.00;99.90;;;;;;5097729;28;20620;-68
2021/10/31 12:08:53;;;;;;;6.20;4.10;;;17.30;99.90;;;;;;5116060;28;20630;-67
2021/10/31 12:11:29;;;;;;;6.33;4.20;;;17.10;99.90;;;;;;5098577;28;20605;-67
2021/10/31 12:14:04;;;;;;;4.13;3.90;;;17.30;99.90;;;;;;5116296;28;20643;-67
2021/10/31 12:16:53;;;;;;;4.03;3.27;;;17.70;99.90;;;;;;5115817;28;20588;-67
2021/10/31 12:19:43;;;;;;;4.80;4.10;;;18.00;99.90;;;;;;5115531;28;20561;-67
2021/10/31 12:22:39;;;;;;;4.27;3.83;;;18.80;99.90;;;;;;5115750;28;20632;-68
2021/10/31 12:25:09;;;;;;;3.20;3.00;;;19.60;99.90;;;;;;5111533;28;20640;-68
2021/10/31 12:27:41;;;;;;;3.80;3.50;;;19.50;99.90;;;;;;5115461;28;20621;-68
2021/10/31 12:30:32;;;;;;;4.20;3.40;;;20.20;99.90;;;;;;5097000;28;20627;-68
2021/10/31 12:33:04;;;;;;;8.03;3.63;;;21.40;99.90;;;;;;5109604;28;20668;-67
2021/10/31 12:35:40;;;;;;;6.33;3.87;;;21.20;99.90;;;;;;5115149;28;20611;-67
2021/10/31 12:38:24;;;;;;;5.40;3.93;;;20.30;99.90;;;;;;5115418;28;21122;-67
2021/10/31 12:41:05;;;;;;;8.10;3.77;;;19.70;99.90;;;;;;5114489;28;20593;-67
2021/10/31 12:43:53;;;;;;;3.63;3.43;;;19.50;99.90;;;;;;5096988;28;20628;-67
2021/10/31 12:46:26;;;;;;;4.20;3.80;;;19.70;99.90;;;;;;5115053;28;20612;-66
2021/10/31 12:49:01;;;;;;;6.10;3.03;;;20.60;99.90;;;;;;5114319;28;20631;-67
2021/10/31 12:52:01;;;;;;;3.57;3.30;;;20.10;99.90;;;;;;5114137;28;20988;-67
2021/10/31 12:54:32;;;;;;;3.70;3.20;;;19.50;99.90;;;;;;5115093;28;20616;-67